Time;durP1;ratioP1;P1;durP2;ratioP2;P2;SDS_P1;SDS_P2;PMS_P1;PMS_P2;Temp;Humidity;BMP_temperature;BMP_pressure;BME280_temperature;BME280_humidity;BME280_pressure;Samples;Min_cycle;Max_cycle;Signal;HPM_P1;HPM_P2
2022/08/01 00:00:31;;;;;;;6.03;5.60;;;;;;;19.77;100.00;101635.56;5256357;28;20016;-83
2022/08/01 00:03:02;;;;;;;4.90;4.43;;;;;;;19.60;100.00;101614.22;5256609;28;20032;-83
2022/08/01 00:05:32;;;;;;;5.97;5.53;;;;;;;19.73;100.00;101629.88;5238884;28;20013;-83
2022/08/01 00:08:03;;;;;;;4.45;4.25;;;;;;;19.68;100.00;101620.91;5257560;28;20108;-83
2022/08/01 00:10:33;;;;;;;5.85;5.50;;;;;;;19.72;100.00;101621.94;5256700;28;20440;-83
2022/08/01 00:13:04;;;;;;;4.22;3.92;;;;;;;19.78;100.00;101637.19;5238015;28;20024;-83
2022/08/01 00:15:34;;;;;;;4.80;4.35;;;;;;;19.62;100.00;101613.91;5238245;28;20375;-84
2022/08/01 00:18:05;;;;;;;4.32;3.92;;;;;;;19.73;100.00;101631.78;5260672;28;20017;-83
2022/08/01 00:20:35;;;;;;;4.95;4.57;;;;;;;19.62;100.00;101611.97;5261819;28;20054;-82
2022/08/01 00:23:05;;;;;;;4.90;3.60;;;;;;;19.52;100.00;101591.03;5263708;28;20393;-83
2022/08/01 00:25:36;;;;;;;5.45;5.07;;;;;;;19.63;100.00;101607.31;5267263;28;20025;-82
2022/08/01 00:28:08;;;;;;;5.78;5.15;;;;;;;19.75;100.00;101643.28;5269552;28;20008;-83
2022/08/01 00:30:39;;;;;;;7.18;5.97;;;;;;;19.71;100.00;101642.25;5269897;28;20028;-81
2022/08/01 00:33:09;;;;;;;6.88;6.32;;;;;;;19.72;100.00;101638.38;5270590;28;20008;-82
2022/08/01 00:35:39;;;;;;;6.30;5.43;;;;;;;19.72;100.00;101643.88;5270081;28;20025;-82
2022/08/01 00:38:10;;;;;;;8.05;7.35;;;;;;;19.58;100.00;101619.16;5270389;28;20036;-82
2022/08/01 00:40:41;;;;;;;7.57;7.00;;;;;;;19.56;100.00;101613.16;5269125;28;20017;-82
2022/08/01 00:43:12;;;;;;;6.55;6.05;;;;;;;19.53;100.00;101611.03;5269685;28;20088;-82
2022/08/01 00:45:42;;;;;;;7.40;6.85;;;;;;;19.69;100.00;101637.06;5252531;28;20001;-82
2022/08/01 00:48:12;;;;;;;8.25;7.57;;;;;;;19.57;100.00;101619.47;5270178;28;20036;-82
2022/08/01 00:50:43;;;;;;;7.78;7.20;;;;;;;19.54;100.00;101616.22;5268695;28;20032;-82
2022/08/01 00:53:14;;;;;;;7.95;7.15;;;;;;;19.43;100.00;101620.16;5269576;28;20013;-81
2022/08/01 00:55:46;;;;;;;9.45;8.05;;;;;;;19.42;100.00;101632.22;5269416;28;20036;-82
2022/08/01 00:58:17;;;;;;;9.88;7.70;;;;;;;19.29;100.00;101629.44;5269661;28;20540;-81
2022/08/01 01:00:47;;;;;;;9.57;6.32;;;;;;;19.27;100.00;101635.22;5266925;28;20025;-82
2022/08/01 01:03:18;;;;;;;11.43;8.10;;;;;;;19.23;100.00;101624.03;5255535;28;20031;-83
2022/08/01 01:06:05;;;;;;;9.50;8.75;;;;;;;19.34;100.00;101632.94;5255879;28;20099;-83
2022/08/01 01:08:49;;;;;;;7.93;7.10;;;;;;;19.27;100.00;101610.56;5237677;28;20030;-83
2022/08/01 01:11:31;;;;;;;7.90;7.35;;;;;;;19.48;100.00;101644.75;5238188;28;20474;-82
2022/08/01 01:14:09;;;;;;;8.32;7.63;;;;;;;19.51;100.00;101635.16;5238279;28;20017;-82
2022/08/01 01:16:42;;;;;;;20.05;8.27;;;;;;;19.33;100.00;101603.91;5259460;28;20386;-82
2022/08/01 01:19:20;;;;;;;9.20;8.48;;;;;;;19.55;100.00;101644.41;5259575;28;20074;-82
2022/08/01 01:22:20;;;;;;;11.68;7.97;;;;;;;19.55;100.00;101638.94;5244334;28;20088;-83
2022/08/01 01:25:22;;;;;;;11.88;8.38;;;;;;;19.57;100.00;101639.47;5257935;28;20036;-83
2022/08/01 01:28:08;;;;;;;8.82;8.05;;;;;;;19.57;100.00;101633.97;5240037;28;20348;-83
2022/08/01 01:30:42;;;;;;;12.45;9.02;;;;;;;19.36;100.00;101597.81;5241386;28;20035;-83
2022/08/01 01:33:14;;;;;;;10.80;8.95;;;;;;;19.55;100.00;101628.78;5240197;28;20032;-83
2022/08/01 01:35:53;;;;;;;9.05;7.95;;;;;;;19.58;100.00;101626.56;5258074;28;20494;-83
2022/08/01 01:38:27;;;;;;;16.17;7.85;;;;;;;19.12;100.00;101547.78;5241164;28;20036;-84
2022/08/01 01:40:59;;;;;;;7.35;6.75;;;;;;;19.43;100.00;101603.72;5241262;28;20100;-83
2022/08/01 01:43:32;;;;;;;8.25;7.65;;;;;;;19.44;100.00;101599.88;5257023;28;20032;-83
2022/08/01 01:46:04;;;;;;;12.23;10.27;;;;;;;19.61;100.00;101632.28;5239051;28;20035;-82
2022/08/01 01:48:36;;;;;;;9.73;8.15;;;;;;;19.59;100.00;101633.69;5238652;28;20025;-82
2022/08/01 01:51:07;;;;;;;15.48;11.52;;;;;;;19.38;100.00;101608.47;5257286;28;20368;-83
2022/08/01 01:53:40;;;;;;;9.55;8.95;;;;;;;19.58;100.00;101634.78;5256655;28;20030;-84
2022/08/01 01:56:14;;;;;;;18.63;9.77;;;;;;;19.41;100.00;101599.66;5256498;28;20028;-83
2022/08/01 01:58:50;;;;;;;14.18;12.90;;;;;;;19.60;100.00;101630.66;5257068;28;20077;-82
2022/08/01 02:01:25;;;;;;;12.27;11.20;;;;;;;19.55;100.00;101628.78;5258219;28;20423;-83
2022/08/01 02:03:58;;;;;;;10.80;9.90;;;;;;;19.58;100.00;101637.53;5257216;28;20354;-83
2022/08/01 02:06:29;;;;;;;10.25;9.65;;;;;;;19.58;100.00;101627.38;5257443;28;20245;-83
2022/08/01 02:09:01;;;;;;;13.07;11.77;;;;;;;19.59;100.00;101629.03;5257850;28;20029;-83
2022/08/01 02:11:32;;;;;;;15.20;11.65;;;;;;;19.58;100.00;101632.06;5257755;28;20027;-83
2022/08/01 02:14:05;;;;;;;13.27;12.00;;;;;;;19.55;100.00;101631.53;5257545;28;20020;-83
2022/08/01 02:16:40;;;;;;;13.00;11.43;;;;;;;19.34;100.00;101597.31;5257078;28;20032;-83
2022/08/01 02:19:11;;;;;;;26.63;13.18;;;;;;;19.31;100.00;101600.66;5256347;28;20088;-83
2022/08/01 02:21:55;;;;;;;17.02;13.88;;;;;;;19.39;100.00;101608.16;5255787;28;20060;-83
2022/08/01 02:25:03;;;;;;;17.92;13.57;;;;;;;19.51;100.00;101625.00;5255698;28;20024;-83
2022/08/01 02:27:39;;;;;;;17.65;15.90;;;;;;;19.51;100.00;101633.22;5255686;28;20048;-83
2022/08/01 02:30:12;;;;;;;16.08;14.77;;;;;;;19.47;100.00;101621.22;5237014;28;20115;-83
2022/08/01 02:32:46;;;;;;;22.25;19.98;;;;;;;19.40;100.00;101614.47;5252723;28;20111;-83
2022/08/01 02:35:32;;;;;;;20.48;18.48;;;;;;;19.35;100.00;101607.13;5256929;28;20027;-83
2022/08/01 02:38:06;;;;;;;21.08;18.42;;;;;;;19.43;100.00;101622.91;5258823;28;20024;-84
2022/08/01 02:40:40;;;;;;;24.38;21.92;;;;;;;19.45;100.00;101626.16;5240403;28;20575;-83
2022/08/01 02:43:12;;;;;;;23.67;21.73;;;;;;;19.33;100.00;101612.13;5258226;28;20055;-83
2022/08/01 02:45:47;;;;;;;28.92;23.05;;;;;;;19.34;100.00;101616.50;5240191;28;20019;-83
2022/08/01 02:48:19;;;;;;;24.55;21.85;;;;;;;19.27;100.00;101621.50;5258528;28;20051;-83
2022/08/01 02:50:52;;;;;;;23.40;20.98;;;;;;;19.09;100.00;101592.19;5257633;28;20025;-83
2022/08/01 02:53:24;;;;;;;24.55;22.15;;;;;;;19.27;100.00;101626.19;5257844;28;20036;-84
2022/08/01 02:55:57;;;;;;;24.95;20.60;;;;;;;19.20;100.00;101643.78;5256963;28;20123;-84
2022/08/01 02:58:28;;;;;;;20.95;18.92;;;;;;;18.94;100.00;101611.56;5257599;28;20020;-84
2022/08/01 03:00:59;;;;;;;19.73;17.65;;;;;;;18.65;100.00;101592.50;5257440;28;20029;-84
2022/08/01 03:03:30;;;;;;;19.52;14.45;;;;;;;18.49;100.00;101594.56;5239245;28;20089;-84
2022/08/01 03:06:02;;;;;;;17.98;14.48;;;;;;;18.81;100.00;101635.78;5239277;28;20039;-84
2022/08/01 03:08:36;;;;;;;17.08;15.55;;;;;;;18.69;100.00;101629.94;5257829;28;20046;-84
2022/08/01 03:11:08;;;;;;;15.95;14.60;;;;;;;18.74;100.00;101635.34;5257092;28;20016;-85
2022/08/01 03:13:41;;;;;;;16.67;13.23;;;;;;;18.77;100.00;101640.22;5257187;28;20088;-84
2022/08/01 03:16:13;;;;;;;13.68;12.60;;;;;;;18.21;100.00;101569.72;5256584;28;20020;-84
2022/08/01 03:18:45;;;;;;;17.33;12.73;;;;;;;18.25;100.00;101582.81;5256903;28;20052;-84
2022/08/01 03:21:19;;;;;;;12.30;11.10;;;;;;;18.60;100.00;101628.94;5238605;28;20042;-84
2022/08/01 03:23:56;;;;;;;12.48;11.20;;;;;;;18.08;100.00;101555.94;5255910;28;20028;-84
2022/08/01 03:26:30;;;;;;;11.52;10.50;;;;;;;18.63;100.00;101652.97;5257173;28;20090;-84
2022/08/01 03:29:11;;;;;;;16.40;10.38;;;;;;;18.46;100.00;101626.06;5257214;28;20039;-84
2022/08/01 03:31:44;;;;;;;11.82;10.70;;;;;;;18.60;100.00;101652.75;5255939;28;20501;-84
2022/08/01 03:34:16;;;;;;;12.60;11.60;;;;;;;18.57;100.00;101637.69;5256033;28;20058;-84
2022/08/01 03:36:52;;;;;;;9.25;8.40;;;;;;;18.58;100.00;101644.78;5256168;28;20029;-85
2022/08/01 03:39:30;;;;;;;10.35;9.48;;;;;;;18.55;100.00;101642.63;5238552;28;20074;-84
2022/08/01 03:42:17;;;;;;;9.60;8.65;;;;;;;18.48;100.00;101633.94;5257008;28;20047;-84
2022/08/01 03:44:53;;;;;;;11.77;8.93;;;;;;;18.39;100.00;101620.13;5258021;28;20078;-84
2022/08/01 03:47:31;;;;;;;12.18;7.47;;;;;;;18.52;100.00;101635.00;5257516;28;20020;-84
2022/08/01 03:50:05;;;;;;;7.68;6.88;;;;;;;18.49;100.00;101632.84;5238517;28;20021;-84
2022/08/01 03:52:39;;;;;;;14.23;9.02;;;;;;;18.56;100.00;101645.09;5255900;28;20028;-85
2022/08/01 03:55:11;;;;;;;7.78;7.20;;;;;;;18.60;100.00;101656.28;5255380;28;20028;-84
2022/08/01 03:57:43;;;;;;;7.50;6.93;;;;;;;18.55;100.00;101648.09;5255286;28;20020;-84
2022/08/01 04:00:18;;;;;;;7.90;7.05;;;;;;;18.54;100.00;101651.94;5255190;28;20025;-84
2022/08/01 04:02:49;;;;;;;6.07;5.68;;;;;;;18.52;100.00;101660.44;5236950;28;20040;-84
2022/08/01 04:05:20;;;;;;;7.45;5.55;;;;;;;18.51;100.00;101652.53;5255919;28;20105;-84
2022/08/01 04:07:57;;;;;;;8.13;7.45;;;;;;;18.48;100.00;101650.38;5256596;28;20033;-84
2022/08/01 04:10:27;;;;;;;8.02;7.45;;;;;;;18.41;100.00;101638.97;5238211;28;20024;-84
2022/08/01 04:12:58;;;;;;;6.00;5.63;;;;;;;18.55;100.00;101654.41;5255786;28;20466;-84
2022/08/01 04:15:29;;;;;;;7.05;6.65;;;;;;;18.42;100.00;101643.34;5237975;28;20047;-84
2022/08/01 04:17:59;;;;;;;9.15;7.63;;;;;;;18.60;100.00;101648.09;5256112;28;20020;-84
2022/08/01 04:20:30;;;;;;;6.00;5.13;;;;;;;18.57;100.00;101640.44;5294577;22;20047;-78
2022/08/01 04:23:00;;;;;;;8.77;6.75;;;;;;;18.59;100.00;101660.09;5259477;28;20035;-79
2022/08/01 04:25:37;;;;;;;6.13;5.68;;;;;;;18.63;100.00;101658.47;5275051;28;20031;-78
2022/08/01 04:28:15;;;;;;;7.05;6.13;;;;;;;18.62;100.00;101654.09;5274522;28;20035;-78
2022/08/01 04:30:50;;;;;;;5.93;5.35;;;;;;;18.64;100.00;101659.28;5274817;28;20020;-78
2022/08/01 04:33:22;;;;;;;7.10;6.22;;;;;;;18.38;100.00;101629.44;5274924;28;20038;-80
2022/08/01 04:35:53;;;;;;;9.30;6.30;;;;;;;18.55;100.00;101651.66;5276086;28;20028;-80
2022/08/01 04:38:27;;;;;;;6.55;6.03;;;;;;;18.51;100.00;101645.13;5274716;28;20046;-79
2022/08/01 04:40:58;;;;;;;7.15;6.55;;;;;;;18.57;100.00;101651.38;5275991;28;20041;-79
2022/08/01 04:43:29;;;;;;;5.72;5.28;;;;;;;18.76;100.00;101684.31;5275435;28;20024;-79
2022/08/01 04:46:03;;;;;;;6.00;5.43;;;;;;;18.78;100.00;101674.69;5274916;28;20503;-78
2022/08/01 04:48:38;;;;;;;9.35;7.53;;;;;;;18.70;100.00;101663.59;5258734;28;20028;-80
2022/08/01 04:51:18;;;;;;;6.95;6.40;;;;;;;18.80;100.00;101669.75;5252863;28;20051;-78
2022/08/01 04:53:50;;;;;;;7.28;6.88;;;;;;;18.85;100.00;101663.41;5275186;28;20381;-79
2022/08/01 04:56:21;;;;;;;6.25;5.65;;;;;;;19.11;100.00;101686.59;5274942;28;20106;-78
2022/08/01 04:59:39;;;;;;;6.05;5.57;;;;;;;19.24;100.00;101682.34;5275701;28;20028;-78
2022/08/01 05:01:41;;;;;;;10.75;6.15;;;;;;;19.44;100.00;101687.53;5275589;28;20032;-79
2022/08/01 05:04:12;;;;;;;6.80;6.15;;;;;;;19.44;100.00;101654.66;5275175;28;20542;-79
2022/08/01 05:06:42;;;;;;;4.80;4.50;;;;;;;19.79;100.00;101691.72;5275184;28;20301;-78
2022/08/01 05:09:13;;;;;;;7.72;4.88;;;;;;;19.94;100.00;101689.84;5274124;28;20028;-79
2022/08/01 05:11:44;;;;;;;4.35;3.95;;;;;;;20.08;100.00;101697.03;5262144;28;20043;-78
2022/08/01 05:14:15;;;;;;;6.00;5.57;;;;;;;20.12;100.00;101698.06;5263543;28;20035;-79
2022/08/01 05:16:45;;;;;;;5.57;4.90;;;;;;;19.97;100.00;101687.31;5261413;28;20024;-79
2022/08/01 05:19:16;;;;;;;7.53;4.57;;;;;;;19.88;100.00;101689.13;5275021;28;20024;-80
2022/08/01 05:21:47;;;;;;;6.75;4.85;;;;;;;19.84;100.00;101690.84;5274099;28;20049;-79
2022/08/01 05:24:17;;;;;;;8.48;4.55;;;;;;;19.70;100.00;101670.75;5273708;28;20030;-79
2022/08/01 05:26:48;;;;;;;3.67;3.42;;;;;;;19.67;100.00;101677.66;5276683;28;20651;-83
2022/08/01 05:29:19;;;;;;;3.65;3.35;;;;;;;19.67;100.00;101687.78;5276466;28;20031;-80
2022/08/01 05:31:50;;;;;;;4.35;3.88;;;;;;;19.53;100.00;101669.38;5257454;28;20036;-80
2022/08/01 05:34:20;;;;;;;4.60;4.30;;;;;;;19.74;100.00;101704.69;5275450;28;20055;-85
2022/08/01 05:36:51;;;;;;;5.63;5.25;;;;;;;19.75;100.00;101692.59;5257205;28;20024;-79
2022/08/01 05:39:21;;;;;;;8.88;5.05;;;;;;;19.81;100.00;101685.94;5273338;28;20020;-80
2022/08/01 05:41:52;;;;;;;3.78;3.58;;;;;;;19.97;100.00;101701.03;5273184;28;20090;-80
2022/08/01 05:44:22;;;;;;;4.72;3.38;;;;;;;19.84;100.00;101677.94;5274698;28;20036;-80
2022/08/01 05:46:53;;;;;;;6.03;5.63;;;;;;;19.78;100.00;101681.06;5275811;28;20020;-82
2022/08/01 05:49:23;;;;;;;5.80;5.30;;;;;;;19.66;100.00;101680.69;5277164;28;20020;-80
2022/08/01 05:51:54;;;;;;;10.73;6.65;;;;;;;19.61;100.00;101667.06;5281269;28;20391;-80
2022/08/01 05:54:24;;;;;;;5.40;4.20;;;;;;;19.95;100.00;101702.44;5286958;28;20062;-78
2022/08/01 05:56:59;;;;;;;5.25;4.90;;;;;;;20.10;100.00;101702.19;5277564;28;20024;-81
2022/08/01 05:59:30;;;;;;;4.38;4.05;;;;;;;20.38;100.00;101709.44;5258876;28;20464;-80
2022/08/01 06:02:01;;;;;;;5.38;4.90;;;;;;;20.39;100.00;101685.56;5279141;28;20030;-80
2022/08/01 06:04:31;;;;;;;5.47;5.18;;;;;;;20.56;100.00;101707.72;5281000;28;20454;-80
2022/08/01 06:07:02;;;;;;;5.60;5.18;;;;;;;20.28;100.00;101681.31;5281517;28;20020;-81
2022/08/01 06:09:32;;;;;;;4.88;4.57;;;;;;;20.32;100.00;101707.84;5280892;28;20016;-80
2022/08/01 06:12:03;;;;;;;5.25;4.75;;;;;;;19.78;100.00;101628.97;5280883;28;20020;-80
2022/08/01 06:14:34;;;;;;;5.40;4.93;;;;;;;20.13;100.00;101696.94;5261748;28;20076;-81
2022/08/01 06:17:04;;;;;;;5.20;4.72;;;;;;;20.15;100.00;101699.38;5262661;28;20491;-80
2022/08/01 06:19:34;;;;;;;4.90;4.60;;;;;;;20.17;100.00;101710.88;5261960;28;20046;-81
2022/08/01 06:22:05;;;;;;;5.90;5.43;;;;;;;20.27;100.00;101699.69;5266718;28;20020;-81
2022/08/01 06:24:35;;;;;;;5.68;5.38;;;;;;;20.38;100.00;101694.91;5284789;28;20489;-81
2022/08/01 06:27:06;;;;;;;5.22;4.82;;;;;;;20.60;100.00;101707.94;5280383;28;20435;-80
2022/08/01 06:29:36;;;;;;;5.82;5.32;;;;;;;20.66;100.00;101696.56;5262742;28;20103;-80
2022/08/01 06:32:07;;;;;;;5.95;5.45;;;;;;;20.66;100.00;101696.56;5280860;28;20386;-81
2022/08/01 06:34:37;;;;;;;5.25;4.95;;;;;;;20.70;100.00;101710.50;5281303;28;20067;-81
2022/08/01 06:37:07;;;;;;;5.53;5.20;;;;;;;20.71;100.00;101710.19;5281134;28;20020;-80
2022/08/01 06:39:38;;;;;;;5.63;5.30;;;;;;;20.77;100.00;101709.00;5262281;28;20031;-80
2022/08/01 06:42:09;;;;;;;6.43;5.90;;;;;;;20.73;100.00;101685.19;5280299;28;20020;-79
2022/08/01 06:44:39;;;;;;;6.25;5.88;;;;;;;20.94;100.00;101693.84;5280977;28;20024;-81
2022/08/01 06:47:10;;;;;;;7.38;6.15;;;;;;;21.05;100.00;101698.81;5266585;28;20091;-80
2022/08/01 06:49:40;;;;;;;5.88;5.43;;;;;;;21.19;100.00;101712.53;5286817;28;20064;-81
2022/08/01 06:52:10;;;;;;;5.90;5.50;;;;;;;21.34;100.00;101723.25;5267405;28;20089;-81
2022/08/01 06:54:41;;;;;;;5.43;5.13;;;;;;;21.54;100.00;101708.22;5265364;28;20020;-81
2022/08/01 06:57:11;;;;;;;6.00;5.60;;;;;;;21.78;100.00;101722.50;5279694;28;20028;-80
2022/08/01 06:59:42;;;;;;;6.55;6.15;;;;;;;21.50;100.00;101683.31;5280241;28;20077;-82
2022/08/01 07:02:12;;;;;;;5.65;5.15;;;;;;;21.69;100.00;101718.06;5280727;28;20032;-81
2022/08/01 07:04:43;;;;;;;6.75;5.60;;;;;;;21.79;100.00;101729.63;5279806;28;20031;-82
2022/08/01 07:07:14;;;;;;;4.85;4.55;;;;;;;21.77;100.00;101712.63;5280357;28;20079;-82
2022/08/01 07:09:44;;;;;;;5.18;4.88;;;;;;;21.96;100.00;101726.22;5279723;28;20088;-80
2022/08/01 07:12:15;;;;;;;5.57;5.28;;;;;;;21.96;100.00;101734.47;5280444;28;20440;-80
2022/08/01 07:14:45;;;;;;;5.15;4.75;;;;;;;21.92;100.00;101702.41;5278651;28;20111;-81
2022/08/01 07:17:15;;;;;;;5.50;5.20;;;;;;;22.15;100.00;101728.81;5261138;28;20474;-81
2022/08/01 07:19:47;;;;;;;5.28;4.72;;;;;;;22.16;100.00;101724.94;5278196;28;20387;-81
2022/08/01 07:22:17;;;;;;;5.30;5.00;;;;;;;22.34;100.00;101728.63;5279566;28;20058;-80
2022/08/01 07:24:48;;;;;;;4.57;4.18;;;;;;;22.60;100.00;101728.75;5278874;28;20020;-80
2022/08/01 07:27:18;;;;;;;3.78;3.58;;;;;;;23.07;100.00;101730.00;5279898;28;20088;-81
2022/08/01 07:29:48;;;;;;;4.22;3.92;;;;;;;23.02;100.00;101708.09;5280050;28;20095;-81
2022/08/01 07:32:19;;;;;;;3.75;3.38;;;;;;;23.24;100.00;101739.09;5262418;28;20027;-81
2022/08/01 07:34:50;;;;;;;3.28;3.17;;;;;;;23.13;100.00;101731.44;5278928;28;20032;-81
2022/08/01 07:37:20;;;;;;;3.90;3.70;;;;;;;23.17;100.00;101713.94;5279618;28;20024;-81
2022/08/01 07:39:51;;;;;;;3.85;3.65;;;;;;;23.54;100.00;101728.34;5280110;28;20027;-83
2022/08/01 07:42:21;;;;;;;2.92;2.83;;;;;;;24.13;100.00;101746.03;5279362;28;20031;-82
2022/08/01 07:44:52;;;;;;;3.08;2.97;;;;;;;24.28;100.00;101727.34;5278794;28;20031;-82
2022/08/01 07:47:25;;;;;;;2.55;2.35;;;;;;;24.31;100.00;101723.94;5279087;28;20020;-81
2022/08/01 07:50:00;;;;;;;2.97;2.78;;;;;;;23.98;100.00;101749.28;5279760;28;20020;-83
2022/08/01 07:52:31;;;;;;;2.30;2.20;;;;;;;23.60;100.00;101740.84;5260712;28;20596;-81
2022/08/01 07:55:02;;;;;;;2.30;2.25;;;;;;;23.32;100.00;101734.75;5278657;28;20063;-83
2022/08/01 07:57:32;;;;;;;3.17;2.92;;;;;;;23.46;100.00;101749.19;5280405;28;20027;-83
2022/08/01 08:00:05;;;;;;;3.20;3.10;;;;;;;23.29;100.00;101707.84;5261502;28;20024;-81
2022/08/01 08:02:36;;;;;;;2.25;2.22;;;;;;;23.43;100.00;101699.41;5261147;28;20023;-83
2022/08/01 08:05:07;;;;;;;3.22;3.13;;;;;;;23.78;100.00;101728.66;5279582;28;20076;-80
2022/08/01 08:07:38;;;;;;;2.45;2.35;;;;;;;24.07;100.00;101763.06;5268027;28;20023;-80
2022/08/01 08:10:09;;;;;;;3.20;3.10;;;;;;;24.02;100.00;101728.16;5286063;28;20081;-81
2022/08/01 08:12:39;;;;;;;2.85;2.70;;;;;;;24.25;100.00;101752.88;5259744;28;20024;-81
2022/08/01 08:15:10;;;;;;;2.67;2.58;;;;;;;24.31;100.00;101748.78;5277219;28;20039;-80
2022/08/01 08:17:40;;;;;;;3.80;3.60;;;;;;;24.49;100.00;101748.44;5277069;28;20119;-83
2022/08/01 08:20:11;;;;;;;4.53;2.40;;;;;;;24.77;100.00;101757.13;5278197;28;20035;-81
2022/08/01 08:22:41;;;;;;;3.65;3.10;;;;;;;24.56;100.00;101736.88;5278492;28;20028;-81
2022/08/01 08:25:12;;;;;;;2.75;2.55;;;;;;;24.53;100.00;101760.47;5278028;28;20012;-83
2022/08/01 08:27:42;;;;;;;2.53;2.42;;;;;;;24.60;100.00;101750.84;5279221;28;20019;-80
2022/08/01 08:30:13;;;;;;;3.50;3.15;;;;;;;24.43;100.00;101759.97;5278371;28;20073;-80
2022/08/01 08:32:44;;;;;;;3.35;3.15;;;;;;;24.19;100.00;101761.28;5275813;28;20028;-82
2022/08/01 08:35:14;;;;;;;2.40;2.30;;;;;;;24.16;100.00;101753.66;5275988;28;20028;-82
2022/08/01 08:37:44;;;;;;;2.00;2.00;;;;;;;24.54;100.00;101745.47;5276152;28;20032;-82
2022/08/01 08:40:15;;;;;;;2.22;2.13;;;;;;;24.32;100.00;101742.13;5275515;28;20031;-81
2022/08/01 08:42:47;;;;;;;7.43;3.00;;;;;;;24.04;100.00;101736.13;5257256;28;20020;-81
2022/08/01 08:45:17;;;;;;;2.38;2.28;;;;;;;24.06;100.00;101751.22;5276431;28;20030;-81
2022/08/01 08:47:49;;;;;;;3.15;3.05;;;;;;;23.88;100.00;101755.94;5279856;28;20028;-82
2022/08/01 08:50:20;;;;;;;3.30;3.20;;;;;;;23.67;100.00;101767.94;5282778;28;20032;-81
2022/08/01 08:52:54;;;;;;;2.55;2.45;;;;;;;23.92;100.00;101771.84;5277248;28;20035;-82
2022/08/01 08:55:26;;;;;;;3.45;3.25;;;;;;;24.22;100.00;101763.41;5256582;28;20486;-82
2022/08/01 08:57:57;;;;;;;2.42;2.33;;;;;;;24.37;100.00;101744.72;5274295;28;20024;-81
2022/08/01 09:00:27;;;;;;;2.50;2.40;;;;;;;24.29;100.00;101738.06;5277377;28;20552;-81
2022/08/01 09:02:58;;;;;;;2.85;2.65;;;;;;;24.21;100.00;101747.97;5278271;28;20047;-81
2022/08/01 09:05:29;;;;;;;2.65;2.38;;;;;;;23.98;100.00;101771.34;5277334;28;20031;-81
2022/08/01 09:07:59;;;;;;;2.42;2.33;;;;;;;24.02;100.00;101769.56;5277483;28;20020;-81
2022/08/01 09:10:30;;;;;;;3.05;2.85;;;;;;;24.58;100.00;101754.75;5276906;28;20380;-82
2022/08/01 09:13:07;;;;;;;3.00;2.90;;;;;;;25.03;100.00;101754.28;5277063;28;20068;-82
2022/08/01 09:15:39;;;;;;;2.83;2.72;;;;;;;24.98;100.00;101760.00;5277037;28;20020;-81
2022/08/01 09:18:31;;;;;;;2.78;2.63;;;;;;;25.26;100.00;101770.59;5259495;28;20062;-81
2022/08/01 09:21:19;;;;;;;3.38;3.15;;;;;;;25.66;100.00;101763.56;5277762;28;20024;-81
2022/08/01 09:23:53;;;;;;;2.65;2.50;;;;;;;25.99;100.00;101769.13;5277204;28;20024;-81
2022/08/01 09:26:35;;;;;;;4.68;3.35;;;;;;;25.88;100.00;101760.47;5277523;28;20050;-81
2022/08/01 09:29:08;;;;;;;2.85;2.65;;;;;;;25.88;100.00;101765.19;5276591;28;20119;-80
2022/08/01 09:31:41;;;;;;;2.90;2.70;;;;;;;26.08;100.00;101766.31;5276632;28;20016;-80
2022/08/01 09:34:12;;;;;;;1.90;1.90;;;;;;;25.90;100.00;101737.97;5264227;28;20039;-79
2022/08/01 09:36:55;;;;;;;3.65;3.42;;;;;;;26.01;100.00;101766.84;5286623;28;20027;-81
2022/08/01 09:39:27;;;;;;;2.67;2.58;;;;;;;26.18;100.00;101763.94;5269942;28;20034;-80
2022/08/01 09:42:01;;;;;;;3.30;3.10;;;;;;;26.57;100.00;101759.81;5268676;28;20049;-82
2022/08/01 09:44:38;;;;;;;1.92;1.92;;;;;;;26.53;100.00;101769.16;5280954;28;20020;-80
2022/08/01 09:47:09;;;;;;;2.67;2.47;;;;;;;26.06;100.00;101766.66;5281934;28;20012;-81
2022/08/01 09:49:41;;;;;;;3.20;3.10;;;;;;;26.16;100.00;101776.50;5265184;28;20028;-81
2022/08/01 09:52:16;;;;;;;2.45;2.35;;;;;;;26.53;100.00;101771.94;5287059;28;20024;-81
2022/08/01 09:55:01;;;;;;;2.75;2.55;;;;;;;26.72;100.00;101750.03;5271220;28;20074;-81
2022/08/01 09:57:32;;;;;;;2.83;2.63;;;;;;;27.13;100.00;101781.53;5270069;28;20020;-81
2022/08/01 10:00:04;;;;;;;4.00;3.17;;;;;;;27.39;100.00;101784.75;5280983;28;20035;-81
2022/08/01 10:02:39;;;;;;;2.58;2.38;;;;;;;27.67;96.60;101784.06;5263633;28;20394;-81
2022/08/01 10:05:10;;;;;;;2.45;2.35;;;;;;;27.47;92.82;101778.25;5263550;28;20028;-80
2022/08/01 10:08:07;;;;;;;4.15;2.17;;;;;;;27.34;92.99;101739.81;5263760;28;20077;-81
2022/08/01 10:10:38;;;;;;;2.55;2.42;;;;;;;27.64;92.31;101773.66;5277406;28;20574;-81
2022/08/01 10:13:09;;;;;;;2.60;2.35;;;;;;;27.68;95.02;101753.19;5282289;28;20023;-81
2022/08/01 10:15:40;;;;;;;3.15;3.03;;;;;;;28.18;92.36;101780.44;5263515;28;20087;-81
2022/08/01 10:18:11;;;;;;;2.63;2.53;;;;;;;28.31;91.58;101756.19;5281983;28;20473;-81
2022/08/01 10:20:42;;;;;;;3.60;2.30;;;;;;;28.53;86.76;101774.28;5294752;22;20093;-68
2022/08/01 10:23:12;;;;;;;3.55;3.13;;;;;;;27.72;89.17;101776.28;5251425;28;20020;-67
2022/08/01 10:25:44;;;;;;;2.50;2.40;;;;;;;27.40;88.98;101768.94;5271371;28;20107;-67
2022/08/01 10:28:17;;;;;;;3.65;3.45;;;;;;;27.12;87.93;101779.91;5271996;28;20144;-67
2022/08/01 10:30:48;;;;;;;2.95;2.70;;;;;;;26.73;90.54;101771.06;5272144;28;20031;-67
2022/08/01 10:33:22;;;;;;;2.40;2.30;;;;;;;26.84;94.35;101775.00;5253915;28;20027;-67
2022/08/01 10:35:53;;;;;;;9.20;3.40;;;;;;;27.34;95.38;101770.31;5254345;28;20024;-68
2022/08/01 10:38:23;;;;;;;3.20;2.90;;;;;;;28.06;92.53;101769.34;5271761;28;20035;-67
2022/08/01 10:40:56;;;;;;;2.67;2.58;;;;;;;28.55;90.36;101733.03;5270494;28;20028;-68
2022/08/01 10:43:27;;;;;;;3.05;2.85;;;;;;;29.06;90.38;101764.56;5252030;28;20051;-68
2022/08/01 10:45:58;;;;;;;2.58;2.47;;;;;;;29.32;88.27;101763.19;5251832;28;20051;-68
2022/08/01 10:48:53;;;;;;;2.92;2.72;;;;;;;29.07;83.82;101768.94;5268020;28;20028;-67
2022/08/01 10:51:25;;;;;;;2.53;2.42;;;;;;;27.90;86.16;101765.72;5269705;28;20489;-67
2022/08/01 10:53:57;;;;;;;2.28;2.15;;;;;;;27.68;89.41;101766.25;5269454;28;20038;-68
2022/08/01 10:56:39;;;;;;;2.28;2.22;;;;;;;27.78;88.41;101757.41;5269179;28;20020;-67
2022/08/01 10:59:19;;;;;;;2.83;2.72;;;;;;;28.16;89.78;101759.72;5251588;28;20117;-68
2022/08/01 11:01:58;;;;;;;3.05;2.85;;;;;;;27.92;88.85;101765.38;5269515;28;20055;-68
2022/08/01 11:04:41;;;;;;;3.65;3.33;;;;;;;27.66;89.88;101766.59;5269415;28;20027;-67
2022/08/01 11:07:18;;;;;;;2.40;2.30;;;;;;;27.48;92.03;101767.97;5269604;28;20020;-68
2022/08/01 11:10:04;;;;;;;1.80;1.80;;;;;;;27.37;87.66;101772.41;5269193;28;20020;-67
2022/08/01 11:12:40;;;;;;;2.50;2.40;;;;;;;27.14;89.08;101777.63;5269229;28;20028;-67
2022/08/01 11:15:10;;;;;;;2.88;2.78;;;;;;;27.03;91.38;101766.16;5268970;28;20024;-67
2022/08/01 11:17:48;;;;;;;2.60;2.50;;;;;;;27.00;90.05;101771.59;5268605;28;20081;-67
2022/08/01 11:20:22;;;;;;;3.45;3.25;;;;;;;26.92;90.44;101779.63;5269055;28;20028;-67
2022/08/01 11:22:59;;;;;;;2.65;2.53;;;;;;;26.97;90.46;101773.06;5269016;28;20039;-67
2022/08/01 11:25:46;;;;;;;2.60;2.50;;;;;;;27.25;88.07;101775.97;5268401;28;20020;-68
2022/08/01 11:28:16;;;;;;;2.75;2.50;;;;;;;27.71;91.84;101774.69;5268691;28;20046;-67
2022/08/01 11:30:49;;;;;;;2.90;2.70;;;;;;;28.11;89.25;101769.13;5268581;28;20024;-68
2022/08/01 11:33:39;;;;;;;3.20;3.10;;;;;;;28.27;85.24;101773.97;5268262;28;20476;-68
2022/08/01 11:36:09;;;;;;;2.92;2.70;;;;;;;28.14;82.59;101771.19;5268173;28;20024;-67
2022/08/01 11:38:59;;;;;;;2.50;2.40;;;;;;;28.32;82.85;101768.13;5268172;28;20400;-68
2022/08/01 11:41:33;;;;;;;2.63;2.53;;;;;;;28.01;81.59;101766.81;5268168;28;20040;-67
2022/08/01 11:44:17;;;;;;;3.67;3.33;;;;;;;28.02;85.33;101768.44;5268148;28;20024;-68